Time;durP1;ratioP1;P1;durP2;ratioP2;P2;SDS_P1;SDS_P2;PMS_P1;PMS_P2;Temp;Humidity;BMP_temperature;BMP_pressure;BME280_temperature;BME280_humidity;BME280_pressure;Samples;Min_cycle;Max_cycle;Signal;HPM_P1;HPM_P2
2022/01/10 00:00:10;;;;;;;;;;;;;;;16.90;45.68;100962.63;5084774;28;20289;-45
2022/01/10 00:02:35;;;;;;;;;;;;;;;16.90;45.58;100969.84;5084751;28;19913;-42
2022/01/10 00:05:00;;;;;;;;;;;;;;;16.88;45.65;100964.66;5084082;28;19966;-42
2022/01/10 00:07:26;;;;;;;;;;;;;;;16.86;45.82;100974.69;5079687;28;19913;-45
2022/01/10 00:09:51;;;;;;;;;;;;;;;16.86;45.77;100976.53;5069495;28;19975;-44
2022/01/10 00:12:16;;;;;;;;;;;;;;;16.84;45.62;100976.69;5084465;28;19913;-44
2022/01/10 00:14:41;;;;;;;;;;;;;;;16.84;45.82;100983.91;5083266;28;19989;-48
2022/01/10 00:17:06;;;;;;;;;;;;;;;16.82;45.70;100983.19;5084179;28;19938;-46
2022/01/10 00:19:31;;;;;;;;;;;;;;;16.81;45.77;100984.22;5084227;28;19920;-45
2022/01/10 00:21:56;;;;;;;;;;;;;;;16.80;45.63;100988.75;5083600;28;19986;-41
2022/01/10 00:24:22;;;;;;;;;;;;;;;16.79;45.77;100995.13;5084047;28;19917;-42
2022/01/10 00:26:47;;;;;;;;;;;;;;;16.78;45.61;100996.13;5083826;28;20499;-43
2022/01/10 00:29:12;;;;;;;;;;;;;;;16.77;45.76;100994.41;5083904;28;19923;-46
2022/01/10 00:31:38;;;;;;;;;;;;;;;16.76;45.63;101000.78;5084123;28;19919;-42
2022/01/10 00:34:03;;;;;;;;;;;;;;;16.75;45.79;101001.78;5083931;28;19912;-43
2022/01/10 00:36:28;;;;;;;;;;;;;;;16.74;45.68;101000.09;5083370;28;19916;-40
2022/01/10 00:38:53;;;;;;;;;;;;;;;16.73;45.75;101001.06;5082651;28;19951;-45
2022/01/10 00:41:18;;;;;;;;;;;;;;;16.71;45.57;101005.72;5084000;28;19912;-42
2022/01/10 00:43:46;;;;;;;;;;;;;;;16.72;45.61;101005.59;5083331;28;20451;-44
2022/01/10 00:46:12;;;;;;;;;;;;;;;16.71;45.66;101021.84;5083627;28;20361;-42
2022/01/10 00:48:37;;;;;;;;;;;;;;;16.69;45.75;101024.69;5083871;28;19968;-44
2022/01/10 00:51:02;;;;;;;;;;;;;;;16.68;45.66;101030.19;5083056;28;20011;-44
2022/01/10 00:53:27;;;;;;;;;;;;;;;16.66;45.69;101032.19;5083725;28;20365;-42
2022/01/10 00:55:52;;;;;;;;;;;;;;;16.65;45.76;101041.22;5083276;28;19946;-47
2022/01/10 00:58:18;;;;;;;;;;;;;;;16.64;45.82;101050.28;5083361;28;19962;-43
2022/01/10 01:00:43;;;;;;;;;;;;;;;16.62;45.78;101055.81;5083393;28;19943;-42
2022/01/10 01:03:08;;;;;;;;;;;;;;;16.62;45.80;101053.13;5083508;28;19913;-45
2022/01/10 01:05:38;;;;;;;;;;;;;;;16.61;45.78;101058.63;5082785;28;19913;-43
2022/01/10 01:08:06;;;;;;;;;;;;;;;16.60;45.83;101065.00;5083182;28;19912;-43
2022/01/10 01:13:02;;;;;;;;;;;;;;;16.58;45.79;101064.31;5082870;28;19917;-42
2022/01/10 01:15:32;;;;;;;;;;;;;;;16.57;45.80;101070.69;5089926;28;20007;-48
2022/01/10 01:25:47;;;;;;;;;;;;;;;16.53;45.68;101085.41;5083109;28;19919;-42
2022/01/10 01:28:12;;;;;;;;;;;;;;;16.52;45.78;101099.78;5082893;28;19963;-44
2022/01/10 01:30:37;;;;;;;;;;;;;;;16.50;45.76;101100.78;5083263;28;19912;-45
2022/01/10 01:33:02;;;;;;;;;;;;;;;16.49;45.79;101095.56;5083022;28;20013;-43
2022/01/10 01:35:28;;;;;;;;;;;;;;;16.48;45.77;101105.47;5082768;28;19956;-43
2022/01/10 01:37:54;;;;;;;;;;;;;;;16.48;45.77;101104.59;5083045;28;20030;-47
2022/01/10 01:40:21;;;;;;;;;;;;;;;16.45;45.81;101124.53;5083258;28;19966;-46
2022/01/10 01:42:47;;;;;;;;;;;;;;;16.44;45.79;101122.84;5082472;28;19951;-45
2022/01/10 01:45:13;;;;;;;;;;;;;;;16.44;45.76;101130.06;5082727;28;19917;-43
2022/01/10 01:47:38;;;;;;;;;;;;;;;16.43;45.86;101129.19;5081820;28;19912;-48
2022/01/10 01:50:04;;;;;;;;;;;;;;;16.42;45.83;101132.03;5082561;28;19912;-46
2022/01/10 01:52:30;;;;;;;;;;;;;;;16.40;45.77;101132.19;5082875;28;19916;-44
2022/01/10 01:54:55;;;;;;;;;;;;;;;16.39;45.83;101140.38;5082692;28;19952;-45
2022/01/10 01:57:20;;;;;;;;;;;;;;;16.38;45.89;101144.06;5082890;28;20424;-44
2022/01/10 01:59:45;;;;;;;;;;;;;;;16.36;45.83;101138.84;5082527;28;19912;-45
2022/01/10 02:02:11;;;;;;;;;;;;;;;16.36;45.80;101148.75;5064628;28;19923;-44
2022/01/10 02:04:36;;;;;;;;;;;;;;;16.34;45.93;101151.53;5082690;28;19920;-44
2022/01/10 02:07:01;;;;;;;;;;;;;;;16.34;45.87;101161.44;5064221;28;19913;-42
2022/01/10 02:09:26;;;;;;;;;;;;;;;16.33;45.73;101154.38;5082882;28;20732;-45
2022/01/10 02:11:52;;;;;;;;;;;;;;;16.32;45.83;101158.91;5082438;28;20010;-43
2022/01/10 02:14:18;;;;;;;;;;;;;;;16.32;45.85;101158.06;5082275;28;19920;-45
2022/01/10 02:16:45;;;;;;;;;;;;;;;16.32;45.85;101166.13;5084878;28;19920;-42
2022/01/10 02:19:10;;;;;;;;;;;;;;;16.30;45.76;101166.25;5086466;28;19919;-42
2022/01/10 02:21:36;;;;;;;;;;;;;;;16.30;45.87;101163.56;5086054;28;20278;-46
2022/01/10 02:24:01;;;;;;;;;;;;;;;16.28;45.82;101178.97;5086646;28;19935;-42
2022/01/10 02:26:26;;;;;;;;;;;;;;;16.28;45.75;101178.13;5086400;28;19912;-42
2022/01/10 02:28:52;;;;;;;;;;;;;;;16.27;45.84;101184.47;5086039;28;19920;-43
2022/01/10 02:31:17;;;;;;;;;;;;;;;16.26;45.90;101188.97;5086286;28;19913;-43
2022/01/10 02:33:42;;;;;;;;;;;;;;;16.24;45.80;101194.50;5086383;28;19942;-44
2022/01/10 02:36:26;;;;;;;;;;;;;;;16.24;45.89;101199.03;5067969;28;20615;-43
2022/01/10 02:38:56;;;;;;;;;;;;;;;16.22;45.81;101206.34;5086252;28;20012;-44
2022/01/10 02:41:21;;;;;;;;;;;;;;;16.20;45.87;101214.56;5085990;28;19971;-44
2022/01/10 02:43:46;;;;;;;;;;;;;;;16.19;45.79;101218.25;5085853;28;19912;-46
2022/01/10 02:46:11;;;;;;;;;;;;;;;16.18;45.91;101219.25;5085788;28;19938;-43
2022/01/10 02:48:36;;;;;;;;;;;;;;;16.17;45.85;101230.94;5086132;28;19916;-46
2022/01/10 02:51:01;;;;;;;;;;;;;;;16.15;45.90;101230.25;5085309;28;19939;-42
2022/01/10 02:53:26;;;;;;;;;;;;;;;16.15;45.89;101232.94;5085879;28;19912;-43
2022/01/10 02:55:51;;;;;;;;;;;;;;;16.15;45.96;101234.78;5085485;28;19965;-41
2022/01/10 02:58:17;;;;;;;;;;;;;;;16.15;45.75;101245.50;5085435;28;20511;-43
2022/01/10 03:00:42;;;;;;;;;;;;;;;16.13;45.90;101245.63;5085841;28;19913;-44
2022/01/10 03:03:07;;;;;;;;;;;;;;;16.13;45.73;101250.16;5085441;28;19916;-43
2022/01/10 03:05:33;;;;;;;;;;;;;;;16.12;45.83;101256.50;5085203;28;19966;-45
2022/01/10 03:07:59;;;;;;;;;;;;;;;16.10;45.86;101262.03;5067779;28;19913;-42
2022/01/10 03:10:24;;;;;;;;;;;;;;;16.10;45.82;101258.47;5085928;28;20014;-43
2022/01/10 03:12:49;;;;;;;;;;;;;;;16.10;45.77;101263.81;5085159;28;19931;-42
2022/01/10 03:15:15;;;;;;;;;;;;;;;16.09;45.87;101268.34;5085414;28;19923;-42
2022/01/10 03:17:40;;;;;;;;;;;;;;;16.08;45.75;101269.34;5085635;28;20118;-42
2022/01/10 03:20:06;;;;;;;;;;;;;;;16.07;45.82;101280.22;5084927;28;19912;-42
2022/01/10 03:22:31;;;;;;;;;;;;;;;16.06;45.75;101279.38;5085555;28;19916;-41
2022/01/10 03:24:57;;;;;;;;;;;;;;;16.06;45.77;101286.59;5085396;28;19920;-43
2022/01/10 03:27:23;;;;;;;;;;;;;;;16.05;45.87;101291.06;5084027;28;19920;-43
2022/01/10 03:29:48;;;;;;;;;;;;;;;16.05;45.79;101287.56;5084815;28;19942;-42
2022/01/10 03:32:13;;;;;;;;;;;;;;;16.04;45.89;101289.38;5085329;28;19916;-43
2022/01/10 03:34:38;;;;;;;;;;;;;;;16.05;45.84;101290.22;5085246;28;20417;-43
2022/01/10 03:37:04;;;;;;;;;;;;;;;16.04;45.81;101296.59;5084591;28;20337;-42
2022/01/10 03:39:29;;;;;;;;;;;;;;;16.04;45.81;101301.97;5085325;28;19923;-42
2022/01/10 03:41:54;;;;;;;;;;;;;;;16.04;45.79;101320.72;5084966;28;20624;-46
2022/01/10 03:44:19;;;;;;;;;;;;;;;16.01;45.81;101313.81;5084911;28;19913;-41
2022/01/10 03:46:44;;;;;;;;;;;;;;;16.02;45.89;101328.09;5085021;28;19913;-42
2022/01/10 03:49:09;;;;;;;;;;;;;;;16.00;45.74;101325.53;5084917;28;19912;-43
2022/01/10 03:51:35;;;;;;;;;;;;;;;15.99;45.84;101332.72;5084466;28;19923;-42
2022/01/10 03:54:00;;;;;;;;;;;;;;;15.98;45.79;101339.09;5085125;28;19924;-42
2022/01/10 03:56:26;;;;;;;;;;;;;;;15.98;45.81;101344.44;5084499;28;19974;-45
2022/01/10 03:58:51;;;;;;;;;;;;;;;15.97;45.76;101342.75;5084177;28;19966;-44
2022/01/10 04:01:16;;;;;;;;;;;;;;;15.88;45.81;101329.31;5084754;28;20572;-42
2022/01/10 04:03:42;;;;;;;;;;;;;;;15.97;45.73;101357.97;5084825;28;19912;-42
2022/01/10 04:06:08;;;;;;;;;;;;;;;15.96;45.90;101358.97;5084049;28;19912;-43
2022/01/10 04:08:33;;;;;;;;;;;;;;;15.96;45.76;101367.00;5084374;28;19913;-44
2022/01/10 04:10:58;;;;;;;;;;;;;;;15.95;45.63;101373.38;5084547;28;19956;-42
2022/01/10 04:13:24;;;;;;;;;;;;;;;15.94;45.71;101372.53;5084077;28;20058;-41
2022/01/10 04:15:49;;;;;;;;;;;;;;;15.95;45.73;101381.41;5084254;28;20665;-43
2022/01/10 04:18:14;;;;;;;;;;;;;;;15.93;45.60;101389.63;5084295;28;20007;-45
2022/01/10 04:20:40;;;;;;;;;;;;;;;15.93;45.75;101383.41;5083813;28;19912;-42
2022/01/10 04:23:05;;;;;;;;;;;;;;;15.92;45.59;101395.94;5084392;28;19959;-42
2022/01/10 04:25:30;;;;;;;;;;;;;;;15.90;45.71;101395.25;5084239;28;19921;-42
2022/01/10 04:27:55;;;;;;;;;;;;;;;15.91;45.55;101401.44;5083893;28;20353;-42
2022/01/10 04:30:21;;;;;;;;;;;;;;;15.90;45.67;101402.44;5083846;28;19980;-45
2022/01/10 04:32:46;;;;;;;;;;;;;;;15.88;45.64;101407.91;5084131;28;19965;-43
2022/01/10 04:35:11;;;;;;;;;;;;;;;15.87;45.71;101408.91;5083517;28;19927;-45
2022/01/10 04:37:36;;;;;;;;;;;;;;;15.86;45.59;101417.94;5083835;28;19920;-46
2022/01/10 04:40:02;;;;;;;;;;;;;;;15.86;45.54;101430.50;5083612;28;19912;-41
2022/01/10 04:42:27;;;;;;;;;;;;;;;15.85;45.60;101429.66;5083903;28;19916;-43
2022/01/10 04:44:53;;;;;;;;;;;;;;;15.83;45.64;101434.28;5083422;28;19919;-41
2022/01/10 04:47:18;;;;;;;;;;;;;;;15.82;45.62;101437.13;5083803;28;19963;-47
2022/01/10 04:50:13;;;;;;;;;;;;;;;15.81;45.63;101440.81;5083625;28;19922;-43
2022/01/10 04:52:38;;;;;;;;;;;;;;;15.79;45.60;101446.28;5083892;28;19935;-46
2022/01/10 04:55:04;;;;;;;;;;;;;;;15.79;45.57;101443.59;5083400;28;19916;-46
2022/01/10 04:57:29;;;;;;;;;;;;;;;15.79;45.59;101453.47;5083587;28;19923;-43
2022/01/10 04:59:54;;;;;;;;;;;;;;;15.77;45.58;101447.41;5082795;28;19923;-46
2022/01/10 05:02:19;;;;;;;;;;;;;;;15.75;45.61;101451.06;5083727;28;19913;-42
2022/01/10 05:04:44;;;;;;;;;;;;;;;15.74;45.66;101454.72;5065413;28;19912;-42
2022/01/10 05:07:09;;;;;;;;;;;;;;;15.74;45.55;101461.94;5082768;28;20061;-41
2022/01/10 05:09:35;;;;;;;;;;;;;;;15.73;45.67;101470.97;5083507;28;19921;-42
2022/01/10 05:12:00;;;;;;;;;;;;;;;15.73;45.62;101479.00;5083300;28;19980;-43
2022/01/10 05:14:25;;;;;;;;;;;;;;;15.73;45.52;101479.00;5082854;28;19999;-42
2022/01/10 05:16:52;;;;;;;;;;;;;;;15.71;45.61;101484.47;5082673;28;21355;-43
2022/01/10 05:19:17;;;;;;;;;;;;;;;15.72;45.55;101488.88;5082995;28;19962;-42
2022/01/10 05:21:42;;;;;;;;;;;;;;;15.71;45.55;101491.66;5082745;28;20574;-43
2022/01/10 05:24:08;;;;;;;;;;;;;;;15.71;45.66;101499.72;5083214;28;19919;-41
2022/01/10 05:26:33;;;;;;;;;;;;;;;15.70;45.57;101503.38;5083136;28;20288;-42
2022/01/10 05:29:00;;;;;;;;;;;;;;;15.70;45.58;101504.22;5082458;28;19923;-42
2022/01/10 05:31:26;;;;;;;;;;;;;;;15.69;45.46;101513.25;5083193;28;20489;-44
2022/01/10 05:33:51;;;;;;;;;;;;;;;15.70;45.54;101514.09;5082159;28;19920;-43
2022/01/10 05:36:16;;;;;;;;;;;;;;;15.71;45.55;101523.84;5076542;28;20038;-42
2022/01/10 05:38:42;;;;;;;;;;;;;;;15.71;45.53;101538.09;5058911;28;19919;-41
2022/01/10 05:41:07;;;;;;;;;;;;;;;15.70;45.56;101532.88;5077234;28;19913;-45
2022/01/10 05:43:32;;;;;;;;;;;;;;;15.71;45.56;101539.94;5082466;28;20030;-42
2022/01/10 05:45:58;;;;;;;;;;;;;;;15.71;45.50;101551.50;5081940;28;19920;-40
2022/01/10 05:48:26;;;;;;;;;;;;;;;15.72;45.43;101547.00;5082345;28;19919;-44
2022/01/10 05:50:52;;;;;;;;;;;;;;;15.73;45.46;101557.59;5079767;28;19980;-44
2022/01/10 05:53:17;;;;;;;;;;;;;;;15.74;45.43;101558.44;5082300;28;19920;-43
2022/01/10 05:55:42;;;;;;;;;;;;;;;15.74;45.47;101561.13;5071020;28;20416;-44
2022/01/10 05:58:08;;;;;;;;;;;;;;;15.74;45.50;101555.75;5080311;28;19913;-41
2022/01/10 06:00:34;;;;;;;;;;;;;;;15.74;45.36;101561.97;5060123;28;19973;-41
2022/01/10 06:02:59;;;;;;;;;;;;;;;15.74;45.48;101555.75;5047537;28;19942;-41
2022/01/10 06:05:30;;;;;;;;;;;;;;;15.74;45.47;101561.13;5075910;28;19979;-42
2022/01/10 06:07:55;;;;;;;;;;;;;;;15.75;45.51;101569.03;5065369;28;19912;-42
2022/01/10 06:10:20;;;;;;;;;;;;;;;15.75;45.62;101576.22;5071777;28;19927;-42
2022/01/10 06:12:46;;;;;;;;;;;;;;;15.79;45.54;101584.84;5060687;28;19920;-42
2022/01/10 06:15:11;;;;;;;;;;;;;;;15.78;45.57;101586.69;5076251;28;19936;-41
2022/01/10 06:17:36;;;;;;;;;;;;;;;15.79;45.53;101601.78;5077055;28;19920;-41
2022/01/10 06:20:01;;;;;;;;;;;;;;;15.80;45.63;101605.31;5069927;28;19919;-42
2022/01/10 06:22:27;;;;;;;;;;;;;;;15.80;45.64;101614.22;5066970;28;19912;-42
2022/01/10 06:24:52;;;;;;;;;;;;;;;15.82;45.62;101617.63;5076349;28;19913;-42
2022/01/10 06:27:17;;;;;;;;;;;;;;;15.83;45.60;101629.19;5073562;28;19913;-41
2022/01/10 06:29:42;;;;;;;;;;;;;;;15.83;45.64;101622.00;5075916;28;19999;-45
2022/01/10 06:32:07;;;;;;;;;;;;;;;15.83;45.78;101634.56;5073834;28;19923;-42
2022/01/10 06:34:32;;;;;;;;;;;;;;;15.83;45.57;101638.09;5077124;28;19913;-40
2022/01/10 06:36:59;;;;;;;;;;;;;;;15.85;45.64;101640.66;5061377;28;19917;-44
2022/01/10 06:39:24;;;;;;;;;;;;;;;15.85;45.64;101654.91;5076271;28;19919;-42
2022/01/10 06:41:49;;;;;;;;;;;;;;;15.85;45.72;101654.06;5081756;28;19920;-41
2022/01/10 06:44:14;;;;;;;;;;;;;;;15.83;45.74;101650.66;5075365;28;19916;-41
2022/01/10 06:46:40;;;;;;;;;;;;;;;15.84;45.79;101671.94;5076666;28;19916;-42
2022/01/10 06:49:05;;;;;;;;;;;;;;;15.85;45.76;101667.47;5076603;28;19935;-41
2022/01/10 06:51:30;;;;;;;;;;;;;;;15.85;45.69;101680.88;5075643;28;19948;-42
2022/01/10 06:53:55;;;;;;;;;;;;;;;15.85;45.74;101688.91;5082225;28;19912;-44
2022/01/10 06:56:20;;;;;;;;;;;;;;;15.87;45.71;101684.25;5070791;28;20229;-43
2022/01/10 06:58:45;;;;;;;;;;;;;;;15.87;45.93;101690.47;5044920;28;19916;-46
2022/01/10 07:01:11;;;;;;;;;;;;;;;15.89;45.98;101703.78;5078586;28;19920;-40
2022/01/10 07:03:36;;;;;;;;;;;;;;;15.80;45.94;101685.75;5083126;28;20007;-40
2022/01/10 07:06:01;;;;;;;;;;;;;;;15.91;45.99;101702.66;5081693;28;19916;-39
2022/01/10 07:08:26;;;;;;;;;;;;;;;15.92;45.99;101711.53;5083345;28;20015;-40
2022/01/10 07:10:51;;;;;;;;;;;;;;;15.94;46.05;101715.81;5066645;28;19920;-40
2022/01/10 07:13:16;;;;;;;;;;;;;;;15.95;46.11;101730.06;5064483;28;19920;-38
2022/01/10 07:15:42;;;;;;;;;;;;;;;15.96;46.06;101737.13;5083118;28;19920;-43
2022/01/10 07:18:07;;;;;;;;;;;;;;;15.97;46.16;101731.66;5082495;28;19923;-41
2022/01/10 07:20:33;;;;;;;;;;;;;;;16.03;46.26;101742.84;5082364;28;19955;-44
2022/01/10 07:22:58;;;;;;;;;;;;;;;16.11;46.15;101756.44;5083053;28;19965;-42
2022/01/10 07:25:23;;;;;;;;;;;;;;;16.15;46.02;101758.75;5082679;28;20381;-45
2022/01/10 07:27:49;;;;;;;;;;;;;;;16.22;46.00;101761.75;5082939;28;19971;-46
2022/01/10 07:30:14;;;;;;;;;;;;;;;16.27;45.70;101769.41;5082205;28;19944;-43
2022/01/10 07:32:39;;;;;;;;;;;;;;;16.30;45.63;101774.50;5082785;28;19916;-43
2022/01/10 07:35:04;;;;;;;;;;;;;;;16.34;45.43;101776.81;5082711;28;19920;-45
2022/01/10 07:37:30;;;;;;;;;;;;;;;16.37;45.33;101781.06;5081607;28;19935;-46
2022/01/10 07:39:55;;;;;;;;;;;;;;;16.40;45.35;101783.50;5081755;28;20456;-44
2022/01/10 07:42:20;;;;;;;;;;;;;;;16.42;45.26;101790.41;5082839;28;20085;-44
2022/01/10 07:44:45;;;;;;;;;;;;;;;16.45;45.08;101792.00;5082759;28;19912;-45
2022/01/10 07:47:10;;;;;;;;;;;;;;;16.46;45.04;101794.53;5082596;28;20027;-48
2022/01/10 07:49:36;;;;;;;;;;;;;;;16.47;44.96;101798.94;5080630;28;19928;-46
2022/01/10 07:52:01;;;;;;;;;;;;;;;16.49;45.11;101813.09;5080951;28;19917;-44
2022/01/10 07:54:27;;;;;;;;;;;;;;;16.50;45.28;101814.78;5082898;28;20415;-45
2022/01/10 07:56:52;;;;;;;;;;;;;;;16.52;45.21;101820.00;5082523;28;19920;-44
2022/01/10 07:59:18;;;;;;;;;;;;;;;16.56;45.41;101817.91;5063475;28;20011;-42
2022/01/10 08:01:45;;;;;;;;;;;;;;;16.56;45.41;101821.44;5082190;28;19921;-39
2022/01/10 08:04:10;;;;;;;;;;;;;;;16.58;45.43;101830.25;5082038;28;20313;-42
2022/01/10 08:06:35;;;;;;;;;;;;;;;16.61;45.51;101834.47;5076003;28;20336;-47
2022/01/10 08:09:00;;;;;;;;;;;;;;;16.63;45.49;101833.38;5081881;28;19952;-47
2022/01/10 08:11:27;;;;;;;;;;;;;;;16.66;45.35;101848.38;5079732;28;19925;-46
2022/01/10 08:13:53;;;;;;;;;;;;;;;16.67;45.41;101847.41;5080640;28;20027;-44
2022/01/10 08:16:18;;;;;;;;;;;;;;;16.70;45.24;101845.31;5082140;28;19920;-40
2022/01/10 08:18:43;;;;;;;;;;;;;;;16.73;45.21;101847.75;5078398;28;19921;-47
2022/01/10 08:21:08;;;;;;;;;;;;;;;16.77;45.09;101847.47;5079995;28;20690;-44
2022/01/10 08:23:33;;;;;;;;;;;;;;;16.79;45.25;101851.75;5082152;28;19912;-42
2022/01/10 08:25:59;;;;;;;;;;;;;;;16.82;44.97;101864.94;5062996;28;19920;-40
2022/01/10 08:28:24;;;;;;;;;;;;;;;16.85;45.10;101866.47;5081312;28;19921;-38
2022/01/10 08:30:49;;;;;;;;;;;;;;;16.87;44.90;101877.97;5079497;28;19939;-41
2022/01/10 08:33:14;;;;;;;;;;;;;;;16.91;44.75;101880.25;5077750;28;19943;-42
2022/01/10 08:35:39;;;;;;;;;;;;;;;16.95;44.62;101884.38;5061485;28;20377;-43
2022/01/10 08:38:04;;;;;;;;;;;;;;;16.97;44.62;101884.22;5078273;28;19924;-43
2022/01/10 08:40:30;;;;;;;;;;;;;;;17.01;44.63;101898.25;5080660;28;19916;-44
2022/01/10 08:42:55;;;;;;;;;;;;;;;17.05;44.52;101902.38;5081549;28;20736;-41
2022/01/10 08:45:20;;;;;;;;;;;;;;;17.09;44.43;101896.63;5079606;28;19916;-44
2022/01/10 08:47:46;;;;;;;;;;;;;;;17.18;44.31;101909.25;5064122;28;19921;-42
2022/01/10 08:50:12;;;;;;;;;;;;;;;17.32;44.08;101907.19;5078943;28;19949;-47
2022/01/10 08:52:37;;;;;;;;;;;;;;;17.38;43.78;101906.66;5081352;28;19955;-46
2022/01/10 08:55:03;;;;;;;;;;;;;;;17.39;43.61;101911.91;5079828;28;19938;-44
2022/01/10 08:57:29;;;;;;;;;;;;;;;17.38;43.57;101912.91;5080933;28;20314;-44
2022/01/10 08:59:54;;;;;;;;;;;;;;;17.37;43.53;101921.06;5078605;28;19942;-44
2022/01/10 09:02:19;;;;;;;;;;;;;;;17.34;43.54;101924.06;5078804;28;19921;-42
2022/01/10 09:04:46;;;;;;;;;;;;;;;17.32;43.57;101920.63;5062631;28;19938;-42
2022/01/10 09:07:12;;;;;;;;;;;;;;;17.30;43.36;101934.22;5080783;28;19921;-49
2022/01/10 09:09:37;;;;;;;;;;;;;;;17.32;43.37;101939.44;5062204;28;19923;-47
2022/01/10 09:12:02;;;;;;;;;;;;;;;17.35;43.54;101955.31;5080617;28;19995;-45
2022/01/10 09:14:28;;;;;;;;;;;;;;;17.36;43.41;101960.56;5079683;28;19984;-48
2022/01/10 09:16:53;;;;;;;;;;;;;;;17.41;43.17;101968.22;5081083;28;19917;-43
2022/01/10 09:19:18;;;;;;;;;;;;;;;17.45;43.37;101975.03;5080089;28;20038;-50
2022/01/10 09:21:43;;;;;;;;;;;;;;;17.52;43.22;101980.75;5080312;28;19912;-48
2022/01/10 09:24:08;;;;;;;;;;;;;;;17.60;43.08;101976.41;5080543;28;20008;-47
2022/01/10 09:26:34;;;;;;;;;;;;;;;17.56;42.91;101964.22;5081018;28;20368;-48
2022/01/10 09:28:59;;;;;;;;;;;;;;;17.67;42.91;101990.13;5064478;28;19916;-49
2022/01/10 09:31:25;;;;;;;;;;;;;;;17.67;42.65;102007.16;5080425;28;19931;-44
2022/01/10 09:33:55;;;;;;;;;;;;;;;17.66;42.73;101997.38;5080796;28;19923;-46
2022/01/10 09:36:21;;;;;;;;;;;;;;;17.65;42.78;102003.72;5080155;28;19931;-49
2022/01/10 09:38:46;;;;;;;;;;;;;;;17.65;42.48;102002.88;5077386;28;20011;-44
2022/01/10 09:41:11;;;;;;;;;;;;;;;17.63;42.60;102007.56;5041752;28;19936;-46
2022/01/10 09:43:36;;;;;;;;;;;;;;;17.64;42.55;102012.78;5080223;28;19919;-43
2022/01/10 09:46:02;;;;;;;;;;;;;;;17.65;42.60;102010.94;5061657;28;19923;-43
2022/01/10 09:48:27;;;;;;;;;;;;;;;17.66;42.35;102016.19;5080841;28;19923;-45
2022/01/10 09:50:52;;;;;;;;;;;;;;;17.69;42.41;102024.00;5081488;28;19917;-42
2022/01/10 09:53:18;;;;;;;;;;;;;;;17.71;42.39;102018.47;5082212;28;20646;-44
2022/01/10 09:55:43;;;;;;;;;;;;;;;17.73;42.35;102029.97;5082645;28;19920;-45
2022/01/10 09:58:09;;;;;;;;;;;;;;;17.73;42.23;102032.66;5082359;28;19935;-42
2022/01/10 10:00:34;;;;;;;;;;;;;;;17.75;41.99;102033.41;5082163;28;19916;-43
2022/01/10 10:02:59;;;;;;;;;;;;;;;17.75;42.12;102041.47;5082526;28;19918;-40
2022/01/10 10:05:25;;;;;;;;;;;;;;;17.76;41.95;102042.34;5081605;28;19968;-40
2022/01/10 10:07:50;;;;;;;;;;;;;;;17.77;41.83;102041.34;5082263;28;19916;-41
2022/01/10 10:10:17;;;;;;;;;;;;;;;17.78;41.89;102045.75;5082650;28;19912;-46
2022/01/10 10:12:43;;;;;;;;;;;;;;;17.78;41.59;102048.44;5082081;28;19969;-41
2022/01/10 10:15:10;;;;;;;;;;;;;;;17.78;41.78;102049.28;5081899;28;19920;-42
2022/01/10 10:17:36;;;;;;;;;;;;;;;17.79;41.67;102056.34;5082336;28;19927;-44
2022/01/10 10:20:08;;;;;;;;;;;;;;;17.78;41.85;102062.72;5081847;28;20086;-45
2022/01/10 10:22:33;;;;;;;;;;;;;;;17.80;41.65;102065.28;5082713;28;19937;-45
2022/01/10 10:24:58;;;;;;;;;;;;;;;17.80;41.75;102070.66;5081619;28;19916;-41
2022/01/10 10:27:24;;;;;;;;;;;;;;;17.81;41.92;102075.06;5082204;28;19916;-43
2022/01/10 10:29:49;;;;;;;;;;;;;;;17.81;41.88;102072.38;5081816;28;19923;-44
2022/01/10 10:32:17;;;;;;;;;;;;;;;17.82;41.86;102080.31;5082531;28;20347;-47
2022/01/10 10:34:43;;;;;;;;;;;;;;;17.83;41.83;102086.53;5081465;28;19992;-41
2022/01/10 10:37:09;;;;;;;;;;;;;;;17.83;42.05;102087.38;5081954;28;19956;-47
2022/01/10 10:39:35;;;;;;;;;;;;;;;17.84;42.00;102090.91;5066927;28;20118;-44
2022/01/10 10:42:01;;;;;;;;;;;;;;;17.85;42.23;102101.56;5081080;28;19923;-46
2022/01/10 10:44:27;;;;;;;;;;;;;;;17.86;42.29;102099.72;5082085;28;19920;-47
2022/01/10 10:46:52;;;;;;;;;;;;;;;17.88;42.27;102111.19;5083650;28;19919;-44
2022/01/10 10:49:20;;;;;;;;;;;;;;;17.89;42.13;102108.41;5083555;28;19916;-43
2022/01/10 10:51:48;;;;;;;;;;;;;;;17.91;42.15;102122.56;5080258;28;19923;-43
2022/01/10 10:54:14;;;;;;;;;;;;;;;17.94;42.32;102111.53;5079354;28;19940;-43
2022/01/10 10:56:39;;;;;;;;;;;;;;;17.98;42.04;102112.13;5083470;28;19943;-45
2022/01/10 10:59:06;;;;;;;;;;;;;;;18.02;41.84;102118.09;5083242;28;19920;-43
2022/01/10 11:01:31;;;;;;;;;;;;;;;18.07;41.79;102121.22;5083258;28;20439;-42
2022/01/10 11:03:56;;;;;;;;;;;;;;;18.10;41.69;102124.50;5082231;28;19916;-45
2022/01/10 11:06:22;;;;;;;;;;;;;;;18.13;41.52;102116.16;5083167;28;19969;-44
2022/01/10 11:08:47;;;;;;;;;;;;;;;18.15;41.59;102126.81;5083346;28;19960;-43
2022/01/10 11:11:20;;;;;;;;;;;;;;;18.15;41.39;102127.66;5082675;28;19938;-41
2022/01/10 11:13:45;;;;;;;;;;;;;;;18.15;41.39;102129.50;5077912;28;20011;-43
2022/01/10 11:16:11;;;;;;;;;;;;;;;18.14;41.62;102144.81;5083186;28;19952;-48
2022/01/10 11:18:37;;;;;;;;;;;;;;;18.13;41.43;102143.06;5048702;28;19920;-43
2022/01/10 11:21:02;;;;;;;;;;;;;;;18.13;41.66;102153.00;5079459;28;19940;-40
2022/01/10 11:23:27;;;;;;;;;;;;;;;18.15;41.54;102151.03;5082309;28;19948;-43
2022/01/10 11:25:52;;;;;;;;;;;;;;;18.14;41.60;102150.19;5083237;28;20022;-44
2022/01/10 11:28:21;;;;;;;;;;;;;;;18.17;41.59;102154.44;5065313;28;19920;-47
2022/01/10 11:30:47;;;;;;;;;;;;;;;18.17;41.52;102151.72;5083277;28;19923;-45
2022/01/10 11:33:15;;;;;;;;;;;;;;;18.18;41.68;102156.13;5081944;28;19996;-43
2022/01/10 11:35:41;;;;;;;;;;;;;;;18.18;41.68;102153.44;5082504;28;19924;-43
2022/01/10 11:38:17;;;;;;;;;;;;;;;18.18;41.48;102157.00;5081373;28;19964;-42
2022/01/10 11:40:42;;;;;;;;;;;;;;;18.19;41.54;102152.47;5061998;28;19979;-45
2022/01/10 11:43:08;;;;;;;;;;;;;;;18.19;41.70;102164.09;5081580;28;19959;-45
2022/01/10 11:45:41;;;;;;;;;;;;;;;18.19;41.69;102169.47;5082288;28;19916;-43
2022/01/10 11:48:06;;;;;;;;;;;;;;;18.19;41.80;102174.84;5064338;28;19912;-46
2022/01/10 11:50:31;;;;;;;;;;;;;;;18.21;41.84;102182.78;5080977;28;20596;-45
2022/01/10 11:52:57;;;;;;;;;;;;;;;18.22;42.00;102179.97;5063104;28;19916;-44
2022/01/10 11:55:31;;;;;;;;;;;;;;;18.25;42.03;102184.22;5082163;28;20459;-46
2022/01/10 11:58:16;;;;;;;;;;;;;;;18.25;42.12;102186.91;5064590;28;19920;-48
2022/01/10 12:00:41;;;;;;;;;;;;;;;18.26;42.00;102182.38;5082398;28;20137;-45
2022/01/10 12:03:06;;;;;;;;;;;;;;;18.27;42.06;102192.19;5081811;28;19920;-46
2022/01/10 12:05:32;;;;;;;;;;;;;;;18.28;42.09;102196.59;5063510;28;20392;-42
2022/01/10 12:07:57;;;;;;;;;;;;;;;18.28;41.92;102205.50;5064267;28;19923;-40
2022/01/10 12:10:22;;;;;;;;;;;;;;;18.28;42.23;102200.13;5083317;28;19912;-46
2022/01/10 12:12:50;;;;;;;;;;;;;;;18.30;42.19;102208.91;5083721;28;19981;-44
2022/01/10 12:15:16;;;;;;;;;;;;;;;18.31;42.16;102210.63;5083253;28;19924;-43
2022/01/10 12:17:41;;;;;;;;;;;;;;;18.34;42.22;102214.88;5084186;28;19927;-43
2022/01/10 12:20:08;;;;;;;;;;;;;;;18.36;42.22;102204.84;5083613;28;19920;-42
2022/01/10 12:22:33;;;;;;;;;;;;;;;18.36;42.20;102216.47;5084046;28;19923;-44
2022/01/10 12:24:58;;;;;;;;;;;;;;;18.38;42.00;102213.63;5084247;28;19913;-49
2022/01/10 12:27:23;;;;;;;;;;;;;;;18.40;42.14;102222.44;5083605;28;19917;-47
2022/01/10 12:29:48;;;;;;;;;;;;;;;18.41;42.09;102226.84;5083993;28;20070;-42
2022/01/10 12:32:14;;;;;;;;;;;;;;;18.41;42.26;102232.22;5082617;28;19912;-48
2022/01/10 12:34:41;;;;;;;;;;;;;;;18.43;42.03;102236.47;5084127;28;19975;-44
2022/01/10 12:37:06;;;;;;;;;;;;;;;18.45;42.08;102236.34;5076701;28;19927;-48